createdAt,value
2023-12-30T00:02:11.079Z,83.72
2023-12-30T00:04:39.630Z,83.96
2023-12-30T00:07:08.059Z,84.20
2023-12-30T00:09:38.784Z,84.06
2023-12-30T00:12:08.055Z,83.52
2023-12-30T00:14:36.738Z,84.02
2023-12-30T00:17:06.704Z,84.17
2023-12-30T00:19:36.395Z,84.23
2023-12-30T00:22:05.215Z,84.45
2023-12-30T00:24:36.026Z,85.07
2023-12-30T00:27:04.528Z,84.75
2023-12-30T00:29:33.064Z,84.37
2023-12-30T00:32:03.853Z,84.43
2023-12-30T00:34:36.530Z,84.40
2023-12-30T00:37:05.355Z,83.65
2023-12-30T00:39:33.709Z,83.58
2023-12-30T00:42:02.182Z,82.88
2023-12-30T00:44:30.562Z,82.83
2023-12-30T00:46:59.054Z,82.58
2023-12-30T00:49:27.588Z,82.21
2023-12-30T00:51:57.426Z,82.05
2023-12-30T00:54:29.994Z,82.49
2023-12-30T00:57:03.602Z,82.82
2023-12-30T00:59:32.020Z,83.59
2023-12-30T01:02:00.965Z,84.66
2023-12-30T01:04:29.385Z,85.01
2023-12-30T01:06:59.459Z,85.29
2023-12-30T01:09:27.817Z,84.93
2023-12-30T01:11:56.310Z,84.55
2023-12-30T01:14:24.774Z,84.21
2023-12-30T01:16:53.350Z,83.71
2023-12-30T01:19:23.129Z,83.81
2023-12-30T01:21:51.551Z,84.13
2023-12-30T01:24:21.321Z,84.79
2023-12-30T01:26:49.782Z,84.56
2023-12-30T01:29:18.152Z,84.46
2023-12-30T01:31:46.651Z,84.10
2023-12-30T01:34:15.845Z,84.61
2023-12-30T01:36:44.253Z,85.00
2023-12-30T01:39:13.222Z,84.88
2023-12-30T01:41:44.168Z,85.04
2023-12-30T01:44:12.838Z,85.12
2023-12-30T01:46:41.319Z,85.69
2023-12-30T01:49:09.817Z,85.79
2023-12-30T01:51:42.244Z,85.45
2023-12-30T01:54:11.954Z,85.52
2023-12-30T01:56:41.905Z,85.29
2023-12-30T01:59:11.666Z,84.90
2023-12-30T02:01:40.414Z,85.32
2023-12-30T02:04:09.064Z,85.36
2023-12-30T02:06:37.726Z,86.12
2023-12-30T02:09:06.121Z,86.27
2023-12-30T02:11:35.445Z,86.28
2023-12-30T02:14:05.499Z,85.90
2023-12-30T02:16:37.242Z,86.89
2023-12-30T02:19:05.747Z,87.39
2023-12-30T02:21:34.720Z,87.91
2023-12-30T02:24:04.718Z,88.93
2023-12-30T02:26:33.354Z,89.15
2023-12-30T02:29:01.730Z,88.65
2023-12-30T02:31:30.166Z,88.89
2023-12-30T02:33:58.620Z,89.58
2023-12-30T02:36:27.131Z,89.71
2023-12-30T02:38:55.464Z,90.05
2023-12-30T02:41:25.355Z,90.73
2023-12-30T02:44:01.732Z,90.69
2023-12-30T02:46:30.416Z,91.31
2023-12-30T02:49:04.011Z,91.12
2023-12-30T02:51:32.725Z,90.86
2023-12-30T02:54:01.696Z,89.98
2023-12-30T02:56:31.431Z,89.72
2023-12-30T02:59:01.888Z,89.22
2023-12-30T03:01:32.279Z,89.11
2023-12-30T03:04:02.986Z,89.86
2023-12-30T03:06:32.110Z,90.20
2023-12-30T03:09:00.567Z,89.82
2023-12-30T03:11:30.544Z,90.09
2023-12-30T03:13:58.992Z,89.96
2023-12-30T03:16:27.499Z,89.55
2023-12-30T03:18:56.634Z,88.86
2023-12-30T03:21:26.246Z,88.08
2023-12-30T03:23:54.720Z,87.53
2023-12-30T03:26:24.009Z,87.78
2023-12-30T03:28:53.984Z,87.94
2023-12-30T03:31:24.642Z,88.12
2023-12-30T03:33:53.735Z,89.06
2023-12-30T03:36:22.808Z,89.54
2023-12-30T03:38:51.938Z,88.85
2023-12-30T03:41:20.652Z,89.45
2023-12-30T03:43:49.653Z,90.33
2023-12-30T03:46:19.762Z,90.06
2023-12-30T03:48:48.461Z,90.09
2023-12-30T03:51:17.022Z,90.77
2023-12-30T03:53:45.564Z,90.36
2023-12-30T03:56:14.642Z,89.75
2023-12-30T03:58:43.172Z,90.11
2023-12-30T04:01:11.616Z,89.37
2023-12-30T04:03:41.785Z,89.42
2023-12-30T04:06:18.663Z,89.92
2023-12-30T04:08:47.128Z,90.28
2023-12-30T04:11:15.557Z,90.64
2023-12-30T04:13:44.179Z,90.71
2023-12-30T04:16:12.824Z,90.50
2023-12-30T04:18:42.868Z,90.25
2023-12-30T04:21:11.704Z,90.37
2023-12-30T04:23:40.225Z,90.15
2023-12-30T04:26:08.764Z,90.11
2023-12-30T04:28:37.251Z,89.85
2023-12-30T04:31:06.331Z,89.88
2023-12-30T04:33:35.024Z,90.08
2023-12-30T04:36:05.409Z,90.18
2023-12-30T04:38:33.779Z,89.71
2023-12-30T04:41:02.306Z,90.14
2023-12-30T04:43:32.882Z,91.02
2023-12-30T04:46:01.377Z,90.84
2023-12-30T04:48:29.959Z,90.52
2023-12-30T04:50:58.652Z,90.42
2023-12-30T04:53:28.852Z,89.85
2023-12-30T04:55:57.359Z,90.07
2023-12-30T04:58:25.939Z,90.22
2023-12-30T05:00:54.541Z,89.92
2023-12-30T05:03:23.361Z,90.19
2023-12-30T05:05:52.854Z,90.06
2023-12-30T05:08:21.559Z,90.23
2023-12-30T05:10:51.483Z,91.04
2023-12-30T05:13:20.096Z,91.47
2023-12-30T05:15:49.743Z,91.73
2023-12-30T05:18:18.518Z,92.31
2023-12-30T05:20:46.923Z,92.31
2023-12-30T05:23:15.947Z,92.17
2023-12-30T05:25:44.488Z,92.21
2023-12-30T05:28:14.407Z,92.33
2023-12-30T05:30:43.116Z,92.25
2023-12-30T05:33:11.599Z,93.08
2023-12-30T05:35:42.141Z,93.03
2023-12-30T05:38:13.501Z,92.63
2023-12-30T05:40:42.034Z,92.36
2023-12-30T05:43:10.469Z,92.62
2023-12-30T05:45:40.300Z,92.50
2023-12-30T05:48:09.180Z,92.27
2023-12-30T05:50:37.776Z,91.82
2023-12-30T05:53:06.150Z,91.48
2023-12-30T05:55:34.605Z,91.98
2023-12-30T05:58:03.002Z,92.51
2023-12-30T06:00:31.538Z,91.54
2023-12-30T06:03:01.578Z,91.63
2023-12-30T06:05:30.412Z,91.59
2023-12-30T06:07:58.953Z,91.75
2023-12-30T06:10:27.330Z,91.52
2023-12-30T06:12:55.729Z,91.08
2023-12-30T06:15:24.496Z,91.13
2023-12-30T06:17:53.101Z,91.12
2023-12-30T06:20:24.379Z,91.75
2023-12-30T06:22:52.863Z,91.90
2023-12-30T06:25:21.347Z,92.50
2023-12-30T06:27:49.743Z,93.10
2023-12-30T06:30:18.485Z,92.96
2023-12-30T06:32:46.989Z,92.65
2023-12-30T06:35:15.684Z,92.88
2023-12-30T06:37:45.382Z,92.83
2023-12-30T06:40:14.038Z,92.48
2023-12-30T06:42:46.146Z,92.39
2023-12-30T06:45:14.633Z,92.67
2023-12-30T06:47:44.750Z,93.03
2023-12-30T06:50:14.443Z,92.48
2023-12-30T06:52:44.224Z,91.64
2023-12-30T06:55:20.786Z,91.74
2023-12-30T06:57:55.952Z,92.29
2023-12-30T07:00:24.380Z,92.02
2023-12-30T07:02:52.871Z,92.16
2023-12-30T07:05:21.321Z,91.60
2023-12-30T07:07:51.354Z,91.88
2023-12-30T07:10:20.252Z,92.44
2023-12-30T07:12:48.718Z,92.08
2023-12-30T07:15:17.449Z,92.64
2023-12-30T07:17:47.071Z,93.32
2023-12-30T07:20:15.988Z,93.32
2023-12-30T07:22:45.098Z,93.59
2023-12-30T07:25:15.564Z,93.62
2023-12-30T07:27:43.968Z,92.80
2023-12-30T07:30:13.355Z,92.04
2023-12-30T07:32:42.205Z,91.44
2023-12-30T07:35:10.997Z,91.40
2023-12-30T07:37:39.687Z,91.47
2023-12-30T07:40:10.167Z,91.41
2023-12-30T07:42:40.108Z,92.24
2023-12-30T07:45:09.739Z,92.47
2023-12-30T07:47:38.693Z,92.46
2023-12-30T07:50:09.226Z,92.53
2023-12-30T07:52:37.788Z,92.92
2023-12-30T07:55:07.239Z,93.24
2023-12-30T07:57:35.713Z,93.29
2023-12-30T08:00:07.559Z,92.93
2023-12-30T08:02:42.229Z,92.44
2023-12-30T08:05:10.817Z,92.55
2023-12-30T08:07:39.369Z,93.12
2023-12-30T08:10:09.300Z,93.02
2023-12-30T08:12:37.889Z,92.92
2023-12-30T08:15:12.041Z,92.65
2023-12-30T08:17:40.736Z,92.32
2023-12-30T08:20:11.298Z,92.62
2023-12-30T08:22:40.470Z,93.47
2023-12-30T08:25:10.138Z,92.78
2023-12-30T08:27:38.592Z,92.25
2023-12-30T08:30:10.489Z,91.51
2023-12-30T08:32:38.959Z,91.10
2023-12-30T08:35:09.184Z,90.49
2023-12-30T08:37:38.261Z,90.15
2023-12-30T08:40:12.636Z,89.32
2023-12-30T08:42:45.359Z,89.48
2023-12-30T08:45:19.656Z,88.79
2023-12-30T08:47:48.566Z,88.66
2023-12-30T08:50:17.262Z,87.70
2023-12-30T08:52:46.053Z,86.88
2023-12-30T08:55:14.491Z,86.95
2023-12-30T08:57:44.206Z,86.87
2023-12-30T09:00:17.715Z,86.58
2023-12-30T09:02:48.982Z,85.98
2023-12-30T09:05:20.095Z,86.21
2023-12-30T09:07:49.532Z,85.83
2023-12-30T09:10:21.728Z,85.67
2023-12-30T09:12:50.306Z,85.61
2023-12-30T09:15:20.452Z,85.24
2023-12-30T09:17:49.005Z,85.89
2023-12-30T09:20:17.830Z,86.11
2023-12-30T09:22:46.541Z,85.90
2023-12-30T09:25:15.246Z,85.83
2023-12-30T09:27:43.962Z,86.44
2023-12-30T09:30:13.161Z,86.55
2023-12-30T09:32:42.952Z,86.26
2023-12-30T09:35:11.866Z,85.90
2023-12-30T09:37:40.455Z,86.09
2023-12-30T09:40:11.332Z,85.63
2023-12-30T09:42:40.865Z,84.95
2023-12-30T09:45:11.700Z,85.26
2023-12-30T09:47:41.069Z,84.89
2023-12-30T09:50:11.695Z,85.33
2023-12-30T09:52:40.226Z,85.41
2023-12-30T09:55:09.669Z,84.63
2023-12-30T09:57:38.593Z,84.44
2023-12-30T10:00:09.880Z,84.22
2023-12-30T10:02:39.498Z,85.00
2023-12-30T10:05:10.922Z,85.32
2023-12-30T10:07:39.539Z,85.39
2023-12-30T10:10:10.132Z,84.63
2023-12-30T10:12:39.245Z,84.82
2023-12-30T10:15:08.645Z,84.81
2023-12-30T10:17:38.732Z,84.31
2023-12-30T10:20:11.836Z,84.60
2023-12-30T10:22:41.037Z,84.66
2023-12-30T10:25:10.321Z,83.52
2023-12-30T10:27:40.341Z,83.19
2023-12-30T10:30:10.651Z,83.01
2023-12-30T10:32:39.275Z,82.57
2023-12-30T10:35:10.159Z,82.34
2023-12-30T10:37:38.708Z,82.74
2023-12-30T10:40:10.651Z,82.81
2023-12-30T10:42:39.622Z,82.83
2023-12-30T10:45:09.112Z,83.44
2023-12-30T10:47:42.779Z,82.63
2023-12-30T10:50:14.806Z,83.16
2023-12-30T10:52:52.924Z,83.09
2023-12-30T10:55:27.579Z,82.64
2023-12-30T10:58:05.965Z,82.22
2023-12-30T11:00:37.928Z,82.01
2023-12-30T11:03:07.026Z,81.91
2023-12-30T11:05:41.041Z,81.97
2023-12-30T11:08:10.509Z,81.42
2023-12-30T11:10:42.611Z,82.01
2023-12-30T11:13:11.837Z,80.89
2023-12-30T11:15:42.692Z,80.48
2023-12-30T11:18:15.164Z,81.03
2023-12-30T11:20:47.936Z,80.39
2023-12-30T11:23:17.411Z,81.04
2023-12-30T11:25:48.917Z,80.84
2023-12-30T11:28:20.271Z,80.97
2023-12-30T11:31:01.340Z,81.68
2023-12-30T11:33:30.270Z,81.47
2023-12-30T11:36:02.282Z,81.37
2023-12-30T11:38:32.980Z,81.43
2023-12-30T11:41:03.958Z,80.91
2023-12-30T11:43:32.862Z,80.62
2023-12-30T11:46:04.498Z,81.13
2023-12-30T11:48:33.040Z,80.89
2023-12-30T11:51:03.052Z,80.25
2023-12-30T11:53:36.248Z,80.55
2023-12-30T11:56:04.956Z,81.02
2023-12-30T11:58:33.727Z,80.73
2023-12-30T12:01:02.683Z,79.43
2023-12-30T12:03:31.223Z,80.16
2023-12-30T12:06:00.258Z,80.06
2023-12-30T12:08:31.196Z,80.02
2023-12-30T12:10:59.782Z,79.14
2023-12-30T12:13:31.349Z,79.60
2023-12-30T12:15:59.833Z,79.52
2023-12-30T12:18:28.635Z,79.48
2023-12-30T12:20:57.498Z,79.77
2023-12-30T12:23:27.058Z,78.37
2023-12-30T12:25:56.820Z,78.33
2023-12-30T12:28:25.366Z,77.78
2023-12-30T12:30:55.182Z,77.35
2023-12-30T12:33:23.614Z,76.31
2023-12-30T12:35:52.278Z,75.77
2023-12-30T12:38:20.828Z,75.39
2023-12-30T12:40:49.466Z,76.76
2023-12-30T12:43:19.763Z,75.87
2023-12-30T12:45:49.144Z,76.01
2023-12-30T12:48:17.700Z,76.45
2023-12-30T12:50:46.264Z,76.31
2023-12-30T12:53:14.789Z,75.12
2023-12-30T12:55:43.336Z,75.76
2023-12-30T12:58:11.856Z,75.45
2023-12-30T13:00:41.608Z,75.59
2023-12-30T13:03:10.508Z,75.63
2023-12-30T13:05:39.360Z,75.66
2023-12-30T13:08:09.864Z,76.12
2023-12-30T13:10:41.360Z,75.78
2023-12-30T13:13:10.115Z,75.73
2023-12-30T13:15:39.807Z,74.94
2023-12-30T13:18:14.372Z,75.28
2023-12-30T13:20:46.373Z,74.96
2023-12-30T13:23:16.021Z,75.13
2023-12-30T13:25:45.282Z,75.49
2023-12-30T13:28:15.252Z,76.06
2023-12-30T13:30:44.737Z,76.12
2023-12-30T13:33:17.923Z,76.19
2023-12-30T13:35:46.679Z,75.82
2023-12-30T13:38:15.903Z,76.45
2023-12-30T13:40:45.607Z,75.30
2023-12-30T13:43:14.846Z,75.46
2023-12-30T13:45:46.633Z,75.45
2023-12-30T13:48:42.389Z,75.49
2023-12-30T13:51:13.013Z,75.55
2023-12-30T13:53:41.716Z,75.64
2023-12-30T13:56:18.447Z,75.65
2023-12-30T13:58:48.761Z,76.63
2023-12-30T14:01:18.897Z,77.17
2023-12-30T14:03:49.252Z,77.09
2023-12-30T14:06:22.545Z,77.11
2023-12-30T14:08:50.926Z,76.42
2023-12-30T14:11:35.550Z,76.13
2023-12-30T14:14:10.320Z,75.84
2023-12-30T14:16:40.077Z,75.43
2023-12-30T14:19:10.479Z,75.57
2023-12-30T14:21:40.256Z,75.87
2023-12-30T14:24:12.739Z,76.01
2023-12-30T14:26:41.208Z,75.68
2023-12-30T14:29:10.147Z,75.78
2023-12-30T14:31:38.971Z,75.68
2023-12-30T14:34:07.468Z,76.55
2023-12-30T14:36:37.281Z,76.17
2023-12-30T14:39:09.527Z,75.88
2023-12-30T14:41:39.477Z,75.20
2023-12-30T14:44:07.810Z,75.55
2023-12-30T14:46:36.369Z,75.55
2023-12-30T14:49:04.963Z,75.06
2023-12-30T14:51:33.967Z,75.70
2023-12-30T14:54:05.021Z,76.04
2023-12-30T14:56:37.506Z,75.37
2023-12-30T14:59:06.046Z,75.26
2023-12-30T15:01:34.667Z,76.25
2023-12-30T15:04:04.693Z,76.41
2023-12-30T15:06:35.771Z,76.44
2023-12-30T15:09:10.086Z,76.25
2023-12-30T15:11:38.866Z,76.22
2023-12-30T15:14:07.618Z,76.46
2023-12-30T15:16:36.128Z,76.67
2023-12-30T15:19:04.615Z,76.98
2023-12-30T15:21:35.401Z,77.24
2023-12-30T15:24:06.003Z,76.85
2023-12-30T15:26:34.486Z,76.83
2023-12-30T15:29:03.071Z,77.65
2023-12-30T15:31:32.546Z,77.15
2023-12-30T15:34:01.342Z,77.24
2023-12-30T15:36:30.494Z,78.04
2023-12-30T15:38:59.718Z,78.16
2023-12-30T15:41:29.978Z,77.65
2023-12-30T15:43:58.539Z,77.31
2023-12-30T15:46:29.177Z,77.14
2023-12-30T15:48:57.715Z,77.25
2023-12-30T15:51:26.228Z,77.66
2023-12-30T15:53:54.692Z,76.81
2023-12-30T15:56:23.029Z,76.94
2023-12-30T15:58:53.392Z,77.07
2023-12-30T16:01:21.864Z,77.02
2023-12-30T16:03:50.315Z,77.01
2023-12-30T16:06:18.681Z,76.46
2023-12-30T16:08:47.359Z,76.78
2023-12-30T16:11:16.334Z,77.11
2023-12-30T16:13:44.731Z,77.67
2023-12-30T16:16:14.617Z,77.56
2023-12-30T16:18:43.178Z,78.43
2023-12-30T16:21:13.510Z,79.39
2023-12-30T16:23:41.979Z,79.74
2023-12-30T16:26:11.147Z,80.33
2023-12-30T16:28:40.551Z,80.19
2023-12-30T16:31:09.035Z,80.44
2023-12-30T16:33:42.228Z,80.27
2023-12-30T16:36:12.126Z,80.10
2023-12-30T16:38:40.805Z,80.39
2023-12-30T16:41:09.174Z,80.24
2023-12-30T16:43:38.485Z,80.49
2023-12-30T16:46:07.726Z,79.72
2023-12-30T16:48:36.145Z,79.55
2023-12-30T16:51:06.451Z,79.50
2023-12-30T16:53:34.845Z,79.24
2023-12-30T16:56:03.536Z,79.74
2023-12-30T16:58:32.426Z,79.04
2023-12-30T17:01:01.554Z,78.44
2023-12-30T17:03:30.197Z,78.78
2023-12-30T17:05:58.669Z,78.58
2023-12-30T17:08:29.768Z,78.71
2023-12-30T17:10:58.155Z,79.06
2023-12-30T17:13:34.914Z,79.25
2023-12-30T17:16:09.340Z,78.58
2023-12-30T17:18:38.468Z,78.38
2023-12-30T17:21:07.004Z,77.85
2023-12-30T17:23:36.837Z,78.13
2023-12-30T17:26:05.686Z,77.77
2023-12-30T17:28:34.977Z,77.19
2023-12-30T17:31:06.822Z,77.44
2023-12-30T17:33:35.358Z,77.34
2023-12-30T17:36:03.981Z,77.07
2023-12-30T17:38:32.429Z,77.06
2023-12-30T17:41:02.226Z,77.45
2023-12-30T17:43:30.827Z,77.42
2023-12-30T17:45:59.191Z,77.43
2023-12-30T17:48:28.228Z,77.37
2023-12-30T17:50:56.846Z,77.84
2023-12-30T17:53:25.272Z,78.85
2023-12-30T17:55:56.641Z,78.29
2023-12-30T17:58:26.467Z,78.54
2023-12-30T18:00:54.914Z,78.52
2023-12-30T18:03:23.424Z,78.22
2023-12-30T18:05:50.866Z,77.67
2023-12-30T18:08:19.596Z,77.73
2023-12-30T18:10:48.164Z,77.62
2023-12-30T18:13:16.863Z,77.81
2023-12-30T18:15:47.073Z,77.76
2023-12-30T18:18:15.518Z,78.36
2023-12-30T18:20:44.144Z,78.12
2023-12-30T18:23:12.532Z,77.89
2023-12-30T18:25:40.864Z,77.68
2023-12-30T18:28:09.319Z,77.97
2023-12-30T18:30:38.269Z,78.66
2023-12-30T18:33:10.052Z,79.23
2023-12-30T18:35:39.803Z,79.28
2023-12-30T18:38:08.199Z,79.85
2023-12-30T18:40:38.015Z,80.92
2023-12-30T18:43:06.764Z,81.04
2023-12-30T18:45:35.207Z,80.95
2023-12-30T18:48:04.266Z,81.30
2023-12-30T18:50:34.661Z,81.14
2023-12-30T18:53:03.715Z,81.79
2023-12-30T18:55:33.929Z,81.70
2023-12-30T18:58:02.510Z,82.46
2023-12-30T19:00:31.076Z,82.82
2023-12-30T19:02:59.637Z,82.22
2023-12-30T19:05:28.128Z,82.41
2023-12-30T19:07:58.095Z,82.39
2023-12-30T19:10:29.904Z,82.42
2023-12-30T19:12:58.490Z,83.42
2023-12-30T19:15:27.204Z,84.51
2023-12-30T19:17:55.802Z,85.08
2023-12-30T19:20:24.294Z,86.13
2023-12-30T19:22:53.075Z,85.52
2023-12-30T19:25:22.939Z,85.23
2023-12-30T19:27:52.739Z,85.73
2023-12-30T19:30:21.193Z,86.02
2023-12-30T19:32:49.692Z,85.75
2023-12-30T19:35:20.426Z,86.07
2023-12-30T19:37:49.262Z,86.85
2023-12-30T19:40:18.062Z,87.03
2023-12-30T19:42:48.126Z,86.97
2023-12-30T19:45:17.044Z,86.86
2023-12-30T19:47:45.822Z,86.88
2023-12-30T19:50:14.430Z,88.12
2023-12-30T19:52:42.993Z,89.53
2023-12-30T19:55:11.709Z,88.41
2023-12-30T19:57:40.169Z,88.28
2023-12-30T20:00:14.452Z,87.92
2023-12-30T20:02:43.550Z,87.25
2023-12-30T20:05:14.311Z,87.67
2023-12-30T20:07:43.074Z,87.15
2023-12-30T20:10:12.631Z,87.63
2023-12-30T20:12:41.350Z,87.75
2023-12-30T20:15:11.319Z,89.08
2023-12-30T20:17:39.947Z,90.45
2023-12-30T20:20:11.688Z,90.53
2023-12-30T20:22:40.199Z,89.69
2023-12-30T20:25:09.589Z,88.77
2023-12-30T20:27:38.385Z,89.22
2023-12-30T20:30:08.631Z,89.45
2023-12-30T20:32:38.765Z,90.26
2023-12-30T20:35:08.130Z,89.62
2023-12-30T20:37:36.525Z,89.26
2023-12-30T20:40:07.182Z,89.61
2023-12-30T20:42:36.326Z,89.34
2023-12-30T20:45:06.382Z,89.18
2023-12-30T20:47:34.949Z,88.96
2023-12-30T20:50:05.815Z,88.89
2023-12-30T20:52:35.477Z,88.98
2023-12-30T20:55:05.025Z,88.99
2023-12-30T20:57:33.968Z,88.25
2023-12-30T21:00:02.437Z,88.88
2023-12-30T21:02:31.111Z,89.52
2023-12-30T21:04:59.471Z,89.79
2023-12-30T21:07:29.416Z,89.14
2023-12-30T21:09:57.884Z,89.20
2023-12-30T21:12:26.366Z,88.48
2023-12-30T21:14:54.776Z,88.61
2023-12-30T21:17:23.128Z,88.73
2023-12-30T21:19:51.865Z,89.58
2023-12-30T21:22:20.482Z,90.11
2023-12-30T21:24:50.256Z,89.68
2023-12-30T21:27:18.814Z,88.71
2023-12-30T21:29:47.167Z,88.85
2023-12-30T21:32:15.634Z,89.31
2023-12-30T21:34:44.394Z,88.79
2023-12-30T21:37:13.751Z,89.02
2023-12-30T21:39:42.456Z,89.55
2023-12-30T21:42:12.199Z,90.05
2023-12-30T21:44:42.920Z,90.10
2023-12-30T21:47:11.311Z,90.19
2023-12-30T21:49:40.534Z,90.63
2023-12-30T21:52:09.996Z,89.96
2023-12-30T21:54:38.387Z,89.84
2023-12-30T21:57:06.984Z,89.17
2023-12-30T21:59:36.728Z,89.16
2023-12-30T22:02:05.405Z,89.81
2023-12-30T22:04:33.986Z,89.59
2023-12-30T22:07:02.294Z,89.75
2023-12-30T22:09:33.221Z,89.24
2023-12-30T22:12:01.661Z,90.57
2023-12-30T22:14:30.151Z,90.49
2023-12-30T22:17:00.083Z,90.14
2023-12-30T22:19:28.687Z,90.74
2023-12-30T22:21:57.066Z,91.25
2023-12-30T22:24:25.418Z,91.70
2023-12-30T22:26:56.558Z,91.59
2023-12-30T22:29:25.279Z,92.02
2023-12-30T22:31:54.027Z,92.26
2023-12-30T22:34:23.801Z,92.18
2023-12-30T22:36:53.056Z,91.92
2023-12-30T22:39:21.462Z,91.28
2023-12-30T22:41:49.835Z,90.53
2023-12-30T22:44:18.532Z,90.84
2023-12-30T22:46:47.437Z,89.59
2023-12-30T22:49:16.207Z,89.20
2023-12-30T22:51:49.588Z,88.76
2023-12-30T22:54:19.804Z,89.39
2023-12-30T22:56:48.191Z,89.41
2023-12-30T22:59:17.710Z,89.33
2023-12-30T23:01:46.330Z,89.97
2023-12-30T23:04:14.813Z,90.60
2023-12-30T23:06:44.268Z,90.17
2023-12-30T23:09:14.775Z,89.97
2023-12-30T23:11:43.386Z,89.20
2023-12-30T23:14:11.719Z,89.33
2023-12-30T23:16:41.294Z,89.60
2023-12-30T23:19:09.815Z,90.21
2023-12-30T23:21:38.452Z,90.33
2023-12-30T23:24:08.369Z,89.70
2023-12-30T23:26:38.381Z,89.44
2023-12-30T23:29:06.945Z,88.53
2023-12-30T23:31:38.811Z,89.06
2023-12-30T23:34:09.066Z,89.29
2023-12-30T23:36:37.819Z,89.48
2023-12-30T23:39:06.614Z,88.91
2023-12-30T23:41:35.308Z,88.62
2023-12-30T23:44:06.462Z,88.19
2023-12-30T23:46:35.161Z,88.34
2023-12-30T23:49:03.603Z,87.98
2023-12-30T23:51:31.931Z,88.68
2023-12-30T23:54:00.255Z,87.81
2023-12-30T23:56:29.326Z,88.46
2023-12-30T23:58:57.688Z,88.28
